地図

経路データ

SID SEASON NUMBER BASIN SUBBASIN NAME ISO_TIME NATURE LAT LON WMO_WIND WMO_PRES WMO_AGENCY TRACK_TYPE DIST2LAND LANDFALL IFLAG USA_AGENCY USA_ATCF_ID USA_LAT USA_LON USA_RECORD USA_STATUS USA_WIND USA_PRES USA_SSHS USA_R34_NE USA_R34_SE USA_R34_SW USA_R34_NW USA_R50_NE USA_R50_SE USA_R50_SW USA_R50_NW USA_R64_NE USA_R64_SE USA_R64_SW USA_R64_NW USA_POCI USA_ROCI USA_RMW USA_EYE TOKYO_LAT TOKYO_LON TOKYO_GRADE TOKYO_WIND TOKYO_PRES TOKYO_R50_DIR TOKYO_R50_LONG TOKYO_R50_SHORT TOKYO_R30_DIR TOKYO_R30_LONG TOKYO_R30_SHORT TOKYO_LAND CMA_LAT CMA_LON CMA_CAT CMA_WIND CMA_PRES HKO_LAT HKO_LON HKO_CAT HKO_WIND HKO_PRES NEWDELHI_LAT NEWDELHI_LON NEWDELHI_GRADE NEWDELHI_WIND NEWDELHI_PRES NEWDELHI_CI NEWDELHI_DP NEWDELHI_POCI REUNION_LAT REUNION_LON REUNION_TYPE REUNION_WIND REUNION_PRES REUNION_TNUM REUNION_CI REUNION_RMW REUNION_R34_NE REUNION_R34_SE REUNION_R34_SW REUNION_R34_NW REUNION_R50_NE REUNION_R50_SE REUNION_R50_SW REUNION_R50_NW REUNION_R64_NE REUNION_R64_SE REUNION_R64_SW REUNION_R64_NW BOM_LAT BOM_LON BOM_TYPE BOM_WIND BOM_PRES BOM_TNUM BOM_CI BOM_RMW BOM_R34_NE BOM_R34_SE BOM_R34_SW BOM_R34_NW BOM_R50_NE BOM_R50_SE BOM_R50_SW BOM_R50_NW BOM_R64_NE BOM_R64_SE BOM_R64_SW BOM_R64_NW BOM_ROCI BOM_POCI BOM_EYE BOM_POS_METHOD BOM_PRES_METHOD NADI_LAT NADI_LON NADI_CAT NADI_WIND NADI_PRES WELLINGTON_LAT WELLINGTON_LON WELLINGTON_WIND WELLINGTON_PRES DS824_LAT DS824_LON DS824_STAGE DS824_WIND DS824_PRES TD9636_LAT TD9636_LON TD9636_STAGE TD9636_WIND TD9636_PRES TD9635_LAT TD9635_LON TD9635_WIND TD9635_PRES TD9635_ROCI NEUMANN_LAT NEUMANN_LON NEUMANN_CLASS NEUMANN_WIND NEUMANN_PRES MLC_LAT MLC_LON MLC_CLASS MLC_WIND MLC_PRES USA_GUST BOM_GUST BOM_GUST_PER REUNION_GUST REUNION_GUST_PER USA_SEAHGT USA_SEARAD_NE USA_SEARAD_SE USA_SEARAD_SW USA_SEARAD_NW STORM_SPEED STORM_DIR
1948278N17277 1948 71 NA CS NOT_NAMED 1948-10-03 12:00:00 TS 16.7000 -83.5000 30 hurdat_atl main 132 128 O_____________ hurdat_atl AL091948 16.7000 -83.5000 TD 30 -1 11 310
1948278N17277 1948 71 NA CS NOT_NAMED 1948-10-03 15:00:00 TS 17.0503 -83.9371 main 151 148 P_____________ AL091948 17.0503 -83.9371 TD 30 -1 10 312
1948278N17277 1948 71 NA CS NOT_NAMED 1948-10-03 18:00:00 TS 17.4000 -84.3000 30 hurdat_atl main 173 173 O_____________ hurdat_atl AL091948 17.4000 -84.3000 TD 30 -1 9 321
1948278N17277 1948 71 NA CS NOT_NAMED 1948-10-03 21:00:00 TS 17.7499 -84.5377 main 202 202 P_____________ AL091948 17.7499 -84.5377 TD 32 -1 8 331
1948278N17277 1948 71 NA CS NOT_NAMED 1948-10-04 00:00:00 TS 18.1000 -84.7000 35 hurdat_atl main 246 246 O_____________ hurdat_atl AL091948 18.1000 -84.7000 TS 35 0 8 336
1948278N17277 1948 71 NA CS NOT_NAMED 1948-10-04 03:00:00 TS 18.4500 -84.8651 main 279 263 P_____________ AL091948 18.4500 -84.8651 TS 40 0 8 338
1948278N17277 1948 71 NA CS NOT_NAMED 1948-10-04 06:00:00 TS 18.8000 -85.0000 45 hurdat_atl main 263 245 O_____________ hurdat_atl AL091948 18.8000 -85.0000 TS 45 0 8 340
1948278N17277 1948 71 NA CS NOT_NAMED 1948-10-04 09:00:00 TS 19.1500 -85.1374 main 243 229 P_____________ AL091948 19.1500 -85.1374 TS 50 0 7 345
1948278N17277 1948 71 NA CS NOT_NAMED 1948-10-04 12:00:00 TS 19.5000 -85.2000 55 hurdat_atl main 229 209 O_____________ hurdat_atl AL091948 19.5000 -85.2000 TS 55 0 7 357
1948278N17277 1948 71 NA CS NOT_NAMED 1948-10-04 15:00:00 TS 19.8273 -85.1747 main 209 180 P_____________ AL091948 19.8273 -85.1747 TS 62 0 7 15
1948278N17277 1948 71 NA CS NOT_NAMED 1948-10-04 18:00:00 TS 20.2000 -85.0000 70 991 hurdat_atl main 180 134 O_____________ hurdat_atl AL091948 20.2000 -85.0000 HU 70 991 1 10 30
1948278N17277 1948 71 NA CS NOT_NAMED 1948-10-04 21:00:00 TS 20.6701 -84.6526 main 123 73 P_____________ AL091948 20.6701 -84.6526 HU 80 1 13 37
1948278N17277 1948 71 NA CS NOT_NAMED 1948-10-05 00:00:00 TS 21.2000 -84.2000 90 hurdat_atl main 73 30 O_____________ hurdat_atl AL091948 21.2000 -84.2000 HU 90 2 14 37
1948278N17277 1948 71 NA CS NOT_NAMED 1948-10-05 03:00:00 TS 21.8116 -83.7159 main 32 0 P_____________ AL091948 21.8116 -83.7159 HU 100 3 14 37
1948278N17277 1948 71 NA CS NOT_NAMED 1948-10-05 06:00:00 TS 22.3000 -83.3000 110 hurdat_atl main 0 0 O_____________ hurdat_atl AL091948 22.3000 -83.3000 HU 110 3 11 39
1948278N17277 1948 71 NA CS NOT_NAMED 1948-10-05 07:00:00 TS 22.4000 -83.2000 110 hurdat_atl main 0 0 O_____________ hurdat_atl AL091948 22.4000 -83.2000 L HU 110 3 12 39
1948278N17277 1948 71 NA NA NOT_NAMED 1948-10-05 09:00:00 TS 22.7596 -82.8977 main 0 0 P_____________ AL091948 22.7596 -82.8977 HU 107 3 17 37
1948278N17277 1948 71 NA NA NOT_NAMED 1948-10-05 12:00:00 TS 23.5000 -82.3000 105 hurdat_atl main 44 44 O_____________ hurdat_atl AL091948 23.5000 -82.3000 HU 105 3 17 38
1948278N17277 1948 71 NA NA NOT_NAMED 1948-10-05 15:00:00 TS 24.1085 -81.7284 main 111 45 P_____________ AL091948 24.1085 -81.7284 HU 97 3 16 40
1948278N17277 1948 71 NA NA NOT_NAMED 1948-10-05 18:00:00 TS 24.7000 -81.2000 90 hurdat_atl main 45 11 O_____________ hurdat_atl AL091948 24.7000 -81.2000 L HU 90 2 15 37
1948278N17277 1948 71 NA GM NOT_NAMED 1948-10-05 20:00:00 TS 25.1000 -80.9000 90 hurdat_atl main 11 0 O_____________ hurdat_atl AL091948 25.1000 -80.9000 L HU 90 2 14 36
1948278N17277 1948 71 NA NA NOT_NAMED 1948-10-05 21:00:00 TS 25.2859 -80.7341 main 0 0 P_____________ AL091948 25.2859 -80.7341 HU 87 2 14 42
1948278N17277 1948 71 NA NA NOT_NAMED 1948-10-06 00:00:00 TS 25.8000 -80.2000 80 979 hurdat_atl main 0 0 O_____________ hurdat_atl AL091948 25.8000 -80.2000 HU 80 979 1 14 42
1948278N17277 1948 71 NA NA NOT_NAMED 1948-10-06 03:00:00 TS 26.3112 -79.7161 main 39 39 P_____________ AL091948 26.3112 -79.7161 HU 82 1 13 42
1948278N17277 1948 71 NA NA NOT_NAMED 1948-10-06 06:00:00 TS 26.8000 -79.2000 85 hurdat_atl main 79 79 O_____________ hurdat_atl AL091948 26.8000 -79.2000 HU 85 2 14 47
1948278N17277 1948 71 NA NA NOT_NAMED 1948-10-06 09:00:00 TS 27.2498 -78.5868 main 145 145 P_____________ AL091948 27.2498 -78.5868 HU 85 2 15 52
1948278N17277 1948 71 NA NA NOT_NAMED 1948-10-06 12:00:00 TS 27.7000 -77.9000 85 hurdat_atl main 230 230 O_____________ hurdat_atl AL091948 27.7000 -77.9000 HU 85 2 16 53
1948278N17277 1948 71 NA NA NOT_NAMED 1948-10-06 15:00:00 TS 28.1921 -77.1794 main 315 315 P_____________ AL091948 28.1921 -77.1794 HU 85 2 17 53
1948278N17277 1948 71 NA NA NOT_NAMED 1948-10-06 18:00:00 TS 28.7000 -76.4000 85 hurdat_atl main 400 400 O_____________ hurdat_atl AL091948 28.7000 -76.4000 HU 85 2 17 54
1948278N17277 1948 71 NA NA NOT_NAMED 1948-10-06 21:00:00 TS 29.1994 -75.5791 main 482 482 P_____________ AL091948 29.1994 -75.5791 HU 85 2 18 56
1948278N17277 1948 71 NA NA NOT_NAMED 1948-10-07 00:00:00 TS 29.7000 -74.7000 85 hurdat_atl main 562 557 O_____________ hurdat_atl AL091948 29.7000 -74.7000 HU 85 2 18 56
1948278N17277 1948 71 NA NA NOT_NAMED 1948-10-07 03:00:00 TS 30.2204 -73.8315 main 561 550 P_____________ AL091948 30.2204 -73.8315 HU 85 2 19 59
1948278N17277 1948 71 NA NA NOT_NAMED 1948-10-07 06:00:00 TS 30.7000 -72.8000 85 hurdat_atl main 564 564 O_____________ hurdat_atl AL091948 30.7000 -72.8000 HU 85 2 22 67
1948278N17277 1948 71 NA NA NOT_NAMED 1948-10-07 09:00:00 TS 31.0874 -71.4818 main 614 614 P_____________ AL091948 31.0874 -71.4818 HU 87 2 25 74
1948278N17277 1948 71 NA NA NOT_NAMED 1948-10-07 12:00:00 TS 31.4000 -70.0000 90 hurdat_atl main 703 703 O_____________ hurdat_atl AL091948 31.4000 -70.0000 HU 90 2 26 77
1948278N17277 1948 71 NA NA NOT_NAMED 1948-10-07 15:00:00 TS 31.6536 -68.5262 main 790 790 P_____________ AL091948 31.6536 -68.5262 HU 90 2 26 79
1948278N17277 1948 71 NA NA NOT_NAMED 1948-10-07 18:00:00 TS 31.9000 -67.0000 90 hurdat_atl main 895 895 O_____________ hurdat_atl AL091948 31.9000 -67.0000 HU 90 2 26 78
1948278N17277 1948 71 NA NA NOT_NAMED 1948-10-07 21:00:00 TS 32.2172 -65.4780 main 1003 1003 P_____________ AL091948 32.2172 -65.4780 HU 90 2 27 77
1948278N17277 1948 71 NA NA NOT_NAMED 1948-10-07 22:00:00 TS 32.3000 -64.9000 90 hurdat_atl main 1049 1049 O_____________ hurdat_atl AL091948 32.3000 -64.9000 L HU 90 2 32 83
1948278N17277 1948 71 NA NA NOT_NAMED 1948-10-08 00:00:00 TS 32.4000 -63.6000 90 971 hurdat_atl main 1156 1156 O_____________ hurdat_atl AL091948 32.4000 -63.6000 HU 90 971 2 31 86
1948278N17277 1948 71 NA NA NOT_NAMED 1948-10-08 03:00:00 TS 32.4834 -61.8031 main 1254 1254 P_____________ AL091948 32.4834 -61.8031 HU 85 2 30 88
1948278N17277 1948 71 NA NA NOT_NAMED 1948-10-08 06:00:00 TS 32.5000 -60.1000 80 hurdat_atl main 1305 1305 O_____________ hurdat_atl AL091948 32.5000 -60.1000 HU 80 1 29 90
1948278N17277 1948 71 NA NA NOT_NAMED 1948-10-08 09:00:00 TS 32.4779 -58.3427 main 1367 1367 P_____________ AL091948 32.4779 -58.3427 HU 77 1 30 92
1948278N17277 1948 71 NA NA NOT_NAMED 1948-10-08 12:00:00 TS 32.4000 -56.6000 75 hurdat_atl main 1449 1449 O_____________ hurdat_atl AL091948 32.4000 -56.6000 HU 75 1 30 94
1948278N17277 1948 71 NA NA NOT_NAMED 1948-10-08 15:00:00 TS 32.2656 -54.8021 main 1534 1534 P_____________ AL091948 32.2656 -54.8021 HU 72 1 29 96
1948278N17277 1948 71 NA NA NOT_NAMED 1948-10-08 18:00:00 TS 32.1000 -53.2000 70 hurdat_atl main 1608 1608 O_____________ hurdat_atl AL091948 32.1000 -53.2000 HU 70 1 24 97
1948278N17277 1948 71 NA NA NOT_NAMED 1948-10-08 21:00:00 TS 31.9545 -51.9811 main 1628 1628 P_____________ AL091948 31.9545 -51.9811 HU 67 1 19 99
1948278N17277 1948 71 NA NA NOT_NAMED 1948-10-09 00:00:00 TS 31.8000 -51.0000 65 hurdat_atl main 1658 1658 O_____________ hurdat_atl AL091948 31.8000 -51.0000 HU 65 1 17 102
1948278N17277 1948 71 NA NA NOT_NAMED 1948-10-09 03:00:00 TS 31.6063 -50.0628 main 1690 1690 P_____________ AL091948 31.6063 -50.0628 HU 62 0 16 105
1948278N17277 1948 71 NA NA NOT_NAMED 1948-10-09 06:00:00 TS 31.4000 -49.2000 60 hurdat_atl main 1726 1726 O_____________ hurdat_atl AL091948 31.4000 -49.2000 TS 60 0 15 107
1948278N17277 1948 71 NA NA NOT_NAMED 1948-10-09 09:00:00 TS 31.1693 -48.3421 main 1764 1764 P_____________ AL091948 31.1693 -48.3421 TS 57 0 15 105
1948278N17277 1948 71 NA NA NOT_NAMED 1948-10-09 12:00:00 TS 31.0000 -47.5000 55 hurdat_atl main 1803 1803 O_____________ hurdat_atl AL091948 31.0000 -47.5000 TS 55 0 15 98
1948278N17277 1948 71 NA NA NOT_NAMED 1948-10-09 15:00:00 TS 30.9545 -46.6504 main 1823 1823 P_____________ AL091948 30.9545 -46.6504 TS 55 0 15 90
1948278N17277 1948 71 NA NA NOT_NAMED 1948-10-09 18:00:00 TS 31.0000 -45.8000 55 hurdat_atl main 1848 1848 O_____________ hurdat_atl AL091948 31.0000 -45.8000 TS 55 0 15 85
1948278N17277 1948 71 NA NA NOT_NAMED 1948-10-09 21:00:00 TS 31.0769 -44.9500 main 1862 1862 P_____________ AL091948 31.0769 -44.9500 TS 52 0 15 82
1948278N17277 1948 71 NA NA NOT_NAMED 1948-10-10 00:00:00 TS 31.2000 -44.1000 50 hurdat_atl main 1882 1882 O_____________ hurdat_atl AL091948 31.2000 -44.1000 TS 50 0 15 80
1948278N17277 1948 71 NA NA NOT_NAMED 1948-10-10 03:00:00 TS 31.3424 -43.2276 main 1905 1895 P_____________ AL091948 31.3424 -43.2276 TS 50 0 15 78
1948278N17277 1948 71 NA NA NOT_NAMED 1948-10-10 06:00:00 TS 31.5000 -42.4000 50 hurdat_atl main 1916 1916 O_____________ hurdat_atl AL091948 31.5000 -42.4000 TS 50 0 14 76
1948278N17277 1948 71 NA NA NOT_NAMED 1948-10-10 09:00:00 TS 31.6722 -41.6478 main 1930 1930 P_____________ AL091948 31.6722 -41.6478 TS 47 0 12 76
1948278N17277 1948 71 NA NA NOT_NAMED 1948-10-10 12:00:00 TS 31.8000 -41.0000 45 hurdat_atl main 1947 1947 O_____________ hurdat_atl AL091948 31.8000 -41.0000 TS 45 0 10 82
1948278N17277 1948 71 NA NA NOT_NAMED 1948-10-10 15:00:00 TS 31.8071 -40.4469 main 1975 1975 P_____________ AL091948 31.8071 -40.4469 TS 47 0 8 90
1948278N17277 1948 71 NA NA NOT_NAMED 1948-10-10 18:00:00 TS 31.8000 -40.0000 50 hurdat_atl main 1994 1994 O_____________ hurdat_atl AL091948 31.8000 -40.0000 TS 50 0 7 81
1948278N17277 1948 71 NA NA NOT_NAMED 1948-10-10 21:00:00 TS 31.9147 -39.6204 main 2003 1999 P_____________ AL091948 31.9147 -39.6204 TS 50 0 6 71
1948278N17277 1948 71 NA NA NOT_NAMED 1948-10-11 00:00:00 TS 32.0000 -39.3000 50 hurdat_atl main 2009 2009 O_____________ hurdat_atl AL091948 32.0000 -39.3000 TS 50 0 5 88
1948278N17277 1948 71 NA NA NOT_NAMED 1948-10-11 03:00:00 TS 31.9374 -38.9848 main 2033 2033 P_____________ AL091948 31.9374 -38.9848 TS 50 0 5 111
1948278N17277 1948 71 NA NA NOT_NAMED 1948-10-11 06:00:00 TS 31.8000 -38.7000 50 hurdat_atl main 2058 2058 O_____________ hurdat_atl AL091948 31.8000 -38.7000 TS 50 0 5 119
1948278N17277 1948 71 NA NA NOT_NAMED 1948-10-11 09:00:00 TS 31.6725 -38.4200 main 2083 2083 P_____________ AL091948 31.6725 -38.4200 TS 47 0 5 125
1948278N17277 1948 71 NA NA NOT_NAMED 1948-10-11 12:00:00 TS 31.5000 -38.2000 45 hurdat_atl main 2087 2076 O_____________ hurdat_atl AL091948 31.5000 -38.2000 TS 45 0 5 143
1948278N17277 1948 71 NA NA NOT_NAMED 1948-10-11 15:00:00 TS 31.2574 -38.0474 main 2066 2064 P_____________ AL091948 31.2574 -38.0474 TS 45 0 5 161
1948278N17277 1948 71 NA NA NOT_NAMED 1948-10-11 18:00:00 TS 31.0000 -38.0000 45 hurdat_atl main 2064 2063 O_____________ hurdat_atl AL091948 31.0000 -38.0000 TS 45 0 5 183
1948278N17277 1948 71 NA NA NOT_NAMED 1948-10-11 21:00:00 TS 30.7850 -38.0626 main 2073 2072 P_____________ AL091948 30.7850 -38.0626 TS 45 0 4 203
1948278N17277 1948 71 NA NA NOT_NAMED 1948-10-12 00:00:00 TS 30.6000 -38.2000 45 hurdat_atl main 2081 2081 O_____________ hurdat_atl AL091948 30.6000 -38.2000 TS 45 0 4 213
1948278N17277 1948 71 NA NA NOT_NAMED 1948-10-12 03:00:00 TS 30.4274 -38.3275 main 2091 2091 P_____________ AL091948 30.4274 -38.3275 TS 45 0 4 221
1948278N17277 1948 71 NA NA NOT_NAMED 1948-10-12 06:00:00 TS 30.3000 -38.5000 45 hurdat_atl main 2110 2110 O_____________ hurdat_atl AL091948 30.3000 -38.5000 TS 45 0 4 240
1948278N17277 1948 71 NA NA NOT_NAMED 1948-10-12 09:00:00 TS 30.2275 -38.7275 main 2129 2129 P_____________ AL091948 30.2275 -38.7275 TS 45 0 4 257
1948278N17277 1948 71 NA NA NOT_NAMED 1948-10-12 12:00:00 TS 30.2000 -39.0000 45 hurdat_atl main 2157 2157 O_____________ hurdat_atl AL091948 30.2000 -39.0000 TS 45 0 5 265
1948278N17277 1948 71 NA NA NOT_NAMED 1948-10-12 15:00:00 TS 30.1849 -39.2850 main 2182 2168 P_____________ AL091948 30.1849 -39.2850 TS 42 0 5 270
1948278N17277 1948 71 NA NA NOT_NAMED 1948-10-12 18:00:00 TS 30.2000 -39.6000 40 hurdat_atl main 2168 2154 O_____________ hurdat_atl AL091948 30.2000 -39.6000 TS 40 0 6 275
1948278N17277 1948 71 NA NA NOT_NAMED 1948-10-12 21:00:00 TS 30.2351 -39.9650 main 2149 2126 P_____________ AL091948 30.2351 -39.9650 TS 40 0 6 279
1948278N17277 1948 71 NA NA NOT_NAMED 1948-10-13 00:00:00 TS 30.3000 -40.3000 40 hurdat_atl main 2126 2107 O_____________ hurdat_atl AL091948 30.3000 -40.3000 TS 40 0 5 288
1948278N17277 1948 71 NA NA NOT_NAMED 1948-10-13 03:00:00 TS 30.3848 -40.5076 main 2107 2088 P_____________ AL091948 30.3848 -40.5076 TS 37 0 4 300
1948278N17277 1948 71 NA NA NOT_NAMED 1948-10-13 06:00:00 TS 30.5000 -40.7000 35 hurdat_atl main 2088 2070 O_____________ hurdat_atl AL091948 30.5000 -40.7000 TS 35 0 4 304
1948278N17277 1948 71 NA NA NOT_NAMED 1948-10-13 09:00:00 TS 30.6345 -40.9329 main 2070 2033 P_____________ AL091948 30.6345 -40.9329 TS 35 0 6 300
1948278N17277 1948 71 NA NA NOT_NAMED 1948-10-13 12:00:00 TS 30.8000 -41.3000 35 hurdat_atl main 2033 1987 O_____________ hurdat_atl AL091948 30.8000 -41.3000 TS 35 0 9 293
1948278N17277 1948 71 NA NA NOT_NAMED 1948-10-13 15:00:00 TS 30.9928 -41.8974 main 1987 1939 P_____________ AL091948 30.9928 -41.8974 TS 37 0 12 290
1948278N17277 1948 71 NA NA NOT_NAMED 1948-10-13 18:00:00 TS 31.2000 -42.6000 40 hurdat_atl main 1939 1895 O_____________ hurdat_atl AL091948 31.2000 -42.6000 TS 40 0 12 289
1948278N17277 1948 71 NA NA NOT_NAMED 1948-10-13 21:00:00 TS 31.3922 -43.2504 main 1891 1848 P_____________ AL091948 31.3922 -43.2504 TS 42 0 12 290
1948278N17277 1948 71 NA NA NOT_NAMED 1948-10-14 00:00:00 TS 31.6000 -43.9000 45 hurdat_atl main 1848 1806 O_____________ hurdat_atl AL091948 31.6000 -43.9000 TS 45 0 12 292
1948278N17277 1948 71 NA NA NOT_NAMED 1948-10-14 03:00:00 TS 31.8423 -44.5576 main 1802 1751 P_____________ AL091948 31.8423 -44.5576 TS 47 0 12 294
1948278N17277 1948 71 NA NA NOT_NAMED 1948-10-14 06:00:00 TS 32.1000 -45.2000 50 hurdat_atl main 1751 1711 O_____________ hurdat_atl AL091948 32.1000 -45.2000 TS 50 0 12 294
1948278N17277 1948 71 NA NA NOT_NAMED 1948-10-14 09:00:00 TS 32.3276 -45.8528 main 1708 1661 P_____________ AL091948 32.3276 -45.8528 TS 52 0 11 296
1948278N17277 1948 71 NA NA NOT_NAMED 1948-10-14 12:00:00 TS 32.6000 -46.4000 55 hurdat_atl main 1661 1620 O_____________ hurdat_atl AL091948 32.6000 -46.4000 TS 55 0 10 310
1948278N17277 1948 71 NA NA NOT_NAMED 1948-10-14 15:00:00 TS 32.9620 -46.7530 main 1607 1559 P_____________ AL091948 32.9620 -46.7530 TS 57 0 9 328
1948278N17277 1948 71 NA NA NOT_NAMED 1948-10-14 18:00:00 TS 33.4000 -47.0000 60 hurdat_atl main 1559 1497 O_____________ hurdat_atl AL091948 33.4000 -47.0000 TS 60 0 10 335
1948278N17277 1948 71 NA NA NOT_NAMED 1948-10-14 21:00:00 TS 33.8850 -47.2725 main 1497 1439 P_____________ AL091948 33.8850 -47.2725 TS 60 0 11 337
1948278N17277 1948 71 NA NA NOT_NAMED 1948-10-15 00:00:00 TS 34.4000 -47.5000 60 989 hurdat_atl main 1439 1380 O_____________ hurdat_atl AL091948 34.4000 -47.5000 TS 60 989 0 11 341
1948278N17277 1948 71 NA NA NOT_NAMED 1948-10-15 03:00:00 TS 34.9000 -47.6949 main 1380 1324 P_____________ AL091948 34.9000 -47.6949 TS 57 0 10 346
1948278N17277 1948 71 NA NA NOT_NAMED 1948-10-15 06:00:00 TS 35.4000 -47.8000 55 hurdat_atl main 1324 1282 O_____________ hurdat_atl AL091948 35.4000 -47.8000 TS 55 0 10 356
1948278N17277 1948 71 NA NA NOT_NAMED 1948-10-15 09:00:00 TS 35.8550 -47.7585 main 1271 1222 P_____________ AL091948 35.8550 -47.7585 TS 55 0 10 5
1948278N17277 1948 71 NA NA NOT_NAMED 1948-10-15 12:00:00 TS 36.4000 -47.7000 55 hurdat_atl main 1222 1153 O_____________ hurdat_atl AL091948 36.4000 -47.7000 TS 55 0 12 355
1948278N17277 1948 71 NA NA NOT_NAMED 1948-10-15 15:00:00 TS 37.0722 -47.8843 main 1143 1060 P_____________ AL091948 37.0722 -47.8843 TS 52 0 16 354
1948278N17277 1948 71 NA NA NOT_NAMED 1948-10-15 18:00:00 TS 38.0000 -47.9000 50 hurdat_atl main 1049 939 O_____________ hurdat_atl AL091948 38.0000 -47.9000 TS 50 0 22 7
1948278N17277 1948 71 NA NA NOT_NAMED 1948-10-15 21:00:00 TS 39.2415 -47.5266 main 943 846 P_____________ AL091948 39.2415 -47.5266 TS 50 0 29 20
1948278N17277 1948 71 NA NA NOT_NAMED 1948-10-16 00:00:00 TS 40.7000 -46.6000 50 hurdat_atl main 842 803 O_____________ hurdat_atl AL091948 40.7000 -46.6000 TS 50 0 35 32
1948278N17277 1948 71 NA NA NOT_NAMED 1948-10-16 03:00:00 TS 42.1888 -45.1092 main 805 803 P_____________ AL091948 42.1888 -45.1092 TS 47 0 40 42
1948278N17277 1948 71 NA NA NOT_NAMED 1948-10-16 06:00:00 ET 43.7000 -43.0000 45 hurdat_atl main 851 851 O_____________ hurdat_atl AL091948 43.7000 -43.0000 EX 45 -4 45 49
1948278N17277 1948 71 NA NA NOT_NAMED 1948-10-16 09:00:00 ET 45.1435 -40.4110 main 969 969 P_____________ AL091948 45.1435 -40.4110 EX 42 -4 48 54
1948278N17277 1948 71 NA NA NOT_NAMED 1948-10-16 12:00:00 ET 46.5000 -37.5000 40 hurdat_atl main 1143 O_____________ hurdat_atl AL091948 46.5000 -37.5000 EX 40 -4 48 56

IBTrACS Databaseについて

本データベースは、米国NOAAが公開する1842年以降の世界の熱帯低気圧のベストトラックデータアーカイブInternational Best Track Archive for Climate Stewardship (IBTrACS)を、ウェブで閲覧しやすい形式に変換したものです。

最終更新日:2021-12-06